sensor_id;sensor_type;location;lat;lon;timestamp;pressure;altitude;pressure_sealevel;temperature;humidity
71299;BME280;59083;47.974;21.722;2023-02-27T00:02:45;100349.50;;;1.09;76.25
71299;BME280;59083;47.974;21.722;2023-02-27T00:05:46;100366.75;;;1.02;76.38
71299;BME280;59083;47.974;21.722;2023-02-27T00:08:48;100364.84;;;0.93;76.56
71299;BME280;59083;47.974;21.722;2023-02-27T00:11:49;100353.09;;;1.08;76.09
71299;BME280;59083;47.974;21.722;2023-02-27T00:14:50;100372.09;;;1.01;75.99
71299;BME280;59083;47.974;21.722;2023-02-27T00:17:51;100359.88;;;0.90;76.44
71299;BME280;59083;47.974;21.722;2023-02-27T00:20:53;100359.09;;;0.99;76.07
71299;BME280;59083;47.974;21.722;2023-02-27T00:23:54;100338.31;;;1.07;75.53
71299;BME280;59083;47.974;21.722;2023-02-27T00:26:55;100351.44;;;1.07;75.33
71299;BME280;59083;47.974;21.722;2023-02-27T00:29:57;100342.84;;;1.05;75.24
71299;BME280;59083;47.974;21.722;2023-02-27T00:32:59;100364.75;;;0.95;75.14
71299;BME280;59083;47.974;21.722;2023-02-27T00:36:01;100351.84;;;0.92;74.98
71299;BME280;59083;47.974;21.722;2023-02-27T00:39:03;100363.78;;;0.96;75.00
71299;BME280;59083;47.974;21.722;2023-02-27T00:42:04;100351.84;;;0.92;74.80
71299;BME280;59083;47.974;21.722;2023-02-27T00:45:06;100358.94;;;0.91;74.54
71299;BME280;59083;47.974;21.722;2023-02-27T00:48:08;100333.06;;;0.87;74.62
71299;BME280;59083;47.974;21.722;2023-02-27T00:51:09;100354.12;;;0.96;74.07
71299;BME280;59083;47.974;21.722;2023-02-27T00:54:10;100361.78;;;0.88;73.77
71299;BME280;59083;47.974;21.722;2023-02-27T00:57:11;100364.62;;;0.96;73.47
71299;BME280;59083;47.974;21.722;2023-02-27T01:00:15;100356.53;;;0.88;73.07
71299;BME280;59083;47.974;21.722;2023-02-27T01:03:16;100355.97;;;0.85;73.08
71299;BME280;59083;47.974;21.722;2023-02-27T01:06:17;100349.44;;;0.79;72.85
71299;BME280;59083;47.974;21.722;2023-02-27T01:09:18;100368.28;;;0.73;72.56
71299;BME280;59083;47.974;21.722;2023-02-27T01:12:19;100370.47;;;0.68;72.37
71299;BME280;59083;47.974;21.722;2023-02-27T01:15:21;100348.00;;;0.75;72.03
71299;BME280;59083;47.974;21.722;2023-02-27T01:18:22;100359.72;;;0.71;71.67
71299;BME280;59083;47.974;21.722;2023-02-27T01:21:23;100358.63;;;0.73;71.71
71299;BME280;59083;47.974;21.722;2023-02-27T01:24:25;100366.34;;;0.75;71.47
71299;BME280;59083;47.974;21.722;2023-02-27T01:27:26;100374.72;;;0.69;71.58
71299;BME280;59083;47.974;21.722;2023-02-27T01:30:28;100378.78;;;0.73;71.50
71299;BME280;59083;47.974;21.722;2023-02-27T01:33:29;100383.56;;;0.68;71.51
71299;BME280;59083;47.974;21.722;2023-02-27T01:36:30;100368.56;;;0.59;71.80
71299;BME280;59083;47.974;21.722;2023-02-27T01:39:31;100368.44;;;0.60;71.62
71299;BME280;59083;47.974;21.722;2023-02-27T01:42:33;100381.22;;;0.54;71.83
71299;BME280;59083;47.974;21.722;2023-02-27T01:45:38;100372.28;;;0.56;71.53
71299;BME280;59083;47.974;21.722;2023-02-27T01:48:40;100359.75;;;0.60;71.23
71299;BME280;59083;47.974;21.722;2023-02-27T01:51:46;100377.19;;;0.50;71.37
71299;BME280;59083;47.974;21.722;2023-02-27T01:54:47;100370.41;;;0.36;71.56
71299;BME280;59083;47.974;21.722;2023-02-27T01:57:49;100371.34;;;0.46;70.96
71299;BME280;59083;47.974;21.722;2023-02-27T02:00:52;100377.31;;;0.37;71.16
71299;BME280;59083;47.974;21.722;2023-02-27T02:04:17;100389.47;;;0.38;71.06
71299;BME280;59083;47.974;21.722;2023-02-27T02:07:21;100381.25;;;0.43;70.78
71299;BME280;59083;47.974;21.722;2023-02-27T02:10:23;100398.16;;;0.50;70.71
71299;BME280;59083;47.974;21.722;2023-02-27T02:13:25;100402.47;;;0.39;70.51
71299;BME280;59083;47.974;21.722;2023-02-27T02:16:51;100384.34;;;0.36;70.77
71299;BME280;59083;47.974;21.722;2023-02-27T02:27:08;100415.56;;;0.51;70.44
71299;BME280;59083;47.974;21.722;2023-02-27T02:33:50;100420.59;;;0.31;70.75
71299;BME280;59083;47.974;21.722;2023-02-27T02:40:42;100425.81;;;0.31;70.71
71299;BME280;59083;47.974;21.722;2023-02-27T02:43:59;100436.87;;;0.35;70.76
71299;BME280;59083;47.974;21.722;2023-02-27T02:47:30;100433.09;;;0.39;70.86
71299;BME280;59083;47.974;21.722;2023-02-27T02:50:40;100436.78;;;0.36;70.74
71299;BME280;59083;47.974;21.722;2023-02-27T02:57:04;100440.31;;;0.47;70.54
71299;BME280;59083;47.974;21.722;2023-02-27T03:00:12;100430.31;;;0.40;70.64
71299;BME280;59083;47.974;21.722;2023-02-27T03:03:24;100438.19;;;0.40;70.56
71299;BME280;59083;47.974;21.722;2023-02-27T03:06:30;100446.78;;;0.31;71.15
71299;BME280;59083;47.974;21.722;2023-02-27T03:09:40;100428.34;;;0.33;70.94
71299;BME280;59083;47.974;21.722;2023-02-27T03:12:48;100437.50;;;0.38;70.79
71299;BME280;59083;47.974;21.722;2023-02-27T03:16:21;100440.59;;;0.44;70.91
71299;BME280;59083;47.974;21.722;2023-02-27T03:19:28;100449.66;;;0.39;71.07
71299;BME280;59083;47.974;21.722;2023-02-27T03:22:34;100470.84;;;0.48;70.95
71299;BME280;59083;47.974;21.722;2023-02-27T03:25:38;100454.91;;;0.39;71.15
71299;BME280;59083;47.974;21.722;2023-02-27T03:28:48;100465.00;;;0.44;71.19
71299;BME280;59083;47.974;21.722;2023-02-27T03:32:02;100458.31;;;0.40;71.43
71299;BME280;59083;47.974;21.722;2023-02-27T03:35:06;100461.09;;;0.38;71.51
71299;BME280;59083;47.974;21.722;2023-02-27T03:38:33;100465.22;;;0.41;71.54
71299;BME280;59083;47.974;21.722;2023-02-27T03:41:44;100456.06;;;0.47;71.78
71299;BME280;59083;47.974;21.722;2023-02-27T03:45:07;100460.25;;;0.38;71.61
71299;BME280;59083;47.974;21.722;2023-02-27T03:48:11;100466.88;;;0.53;71.31
71299;BME280;59083;47.974;21.722;2023-02-27T03:51:15;100479.91;;;0.44;71.61
71299;BME280;59083;47.974;21.722;2023-02-27T03:54:25;100472.25;;;0.40;71.70
71299;BME280;59083;47.974;21.722;2023-02-27T03:57:28;100464.91;;;0.46;71.52
71299;BME280;59083;47.974;21.722;2023-02-27T04:00:30;100491.09;;;0.46;71.23
71299;BME280;59083;47.974;21.722;2023-02-27T04:03:36;100478.47;;;0.51;71.02
71299;BME280;59083;47.974;21.722;2023-02-27T04:06:47;100479.78;;;0.45;71.30
71299;BME280;59083;47.974;21.722;2023-02-27T04:17:28;100483.25;;;0.46;70.60
71299;BME280;59083;47.974;21.722;2023-02-27T04:24:06;100499.91;;;0.45;70.45
71299;BME280;59083;47.974;21.722;2023-02-27T04:27:26;100496.09;;;0.37;70.32
71299;BME280;59083;47.974;21.722;2023-02-27T04:34:18;100492.91;;;0.34;70.15
71299;BME280;59083;47.974;21.722;2023-02-27T04:37:29;100494.22;;;0.28;70.17
71299;BME280;59083;47.974;21.722;2023-02-27T04:40:38;100492.75;;;0.24;70.39
71299;BME280;59083;47.974;21.722;2023-02-27T04:43:41;100508.00;;;0.19;70.58
71299;BME280;59083;47.974;21.722;2023-02-27T04:46:45;100513.03;;;0.33;70.04
71299;BME280;59083;47.974;21.722;2023-02-27T04:49:53;100518.25;;;0.22;70.30
71299;BME280;59083;47.974;21.722;2023-02-27T04:53:00;100513.12;;;0.21;70.12
71299;BME280;59083;47.974;21.722;2023-02-27T04:56:11;100518.97;;;0.24;69.99
71299;BME280;59083;47.974;21.722;2023-02-27T04:59:17;100518.97;;;0.24;69.95
71299;BME280;59083;47.974;21.722;2023-02-27T05:02:26;100514.91;;;0.20;70.17
71299;BME280;59083;47.974;21.722;2023-02-27T05:05:31;100521.09;;;0.19;70.12
71299;BME280;59083;47.974;21.722;2023-02-27T05:08:40;100517.75;;;0.17;70.20
71299;BME280;59083;47.974;21.722;2023-02-27T05:11:48;100536.91;;;0.07;70.40
71299;BME280;59083;47.974;21.722;2023-02-27T05:14:55;100521.81;;;0.10;70.24
71299;BME280;59083;47.974;21.722;2023-02-27T05:18:01;100533.47;;;0.06;70.23
71299;BME280;59083;47.974;21.722;2023-02-27T05:21:26;100540.25;;;0.09;70.08
71299;BME280;59083;47.974;21.722;2023-02-27T05:25:04;100529.53;;;0.12;70.29
71299;BME280;59083;47.974;21.722;2023-02-27T05:28:32;100547.41;;;0.07;69.81
71299;BME280;59083;47.974;21.722;2023-02-27T05:31:49;100543.25;;;0.04;69.71
71299;BME280;59083;47.974;21.722;2023-02-27T05:38:15;100563.34;;;0.04;69.33
71299;BME280;59083;47.974;21.722;2023-02-27T05:41:28;100560.66;;;0.16;68.94
71299;BME280;59083;47.974;21.722;2023-02-27T05:44:38;100577.91;;;0.19;68.73
71299;BME280;59083;47.974;21.722;2023-02-27T05:47:45;100569.91;;;0.09;68.66
71299;BME280;59083;47.974;21.722;2023-02-27T05:50:50;100592.19;;;0.15;68.19
71299;BME280;59083;47.974;21.722;2023-02-27T05:53:56;100593.06;;;0.26;67.54
71299;BME280;59083;47.974;21.722;2023-02-27T05:57:01;100595.69;;;0.26;67.80
71299;BME280;59083;47.974;21.722;2023-02-27T06:03:12;100602.34;;;0.30;66.88
71299;BME280;59083;47.974;21.722;2023-02-27T06:06:17;100600.56;;;0.42;66.67
71299;BME280;59083;47.974;21.722;2023-02-27T06:09:20;100594.75;;;0.61;65.97
71299;BME280;59083;47.974;21.722;2023-02-27T06:12:22;100611.81;;;0.55;65.34
71299;BME280;59083;47.974;21.722;2023-02-27T06:15:23;100613.59;;;0.66;65.28
71299;BME280;59083;47.974;21.722;2023-02-27T06:18:24;100621.00;;;0.83;65.10
71299;BME280;59083;47.974;21.722;2023-02-27T06:21:25;100624.81;;;0.68;65.10
71299;BME280;59083;47.974;21.722;2023-02-27T06:24:27;100610.72;;;0.80;64.84
71299;BME280;59083;47.974;21.722;2023-02-27T06:27:28;100613.81;;;0.63;65.05
71299;BME280;59083;47.974;21.722;2023-02-27T06:30:29;100610.97;;;0.77;64.96
71299;BME280;59083;47.974;21.722;2023-02-27T06:33:30;100641.50;;;0.67;64.92
71299;BME280;59083;47.974;21.722;2023-02-27T06:36:33;100646.97;;;0.75;65.07
71299;BME280;59083;47.974;21.722;2023-02-27T06:39:34;100622.66;;;0.84;64.82
71299;BME280;59083;47.974;21.722;2023-02-27T06:42:37;100650.56;;;0.85;64.65
71299;BME280;59083;47.974;21.722;2023-02-27T06:45:38;100653.41;;;0.93;64.29
71299;BME280;59083;47.974;21.722;2023-02-27T06:48:39;100652.47;;;0.94;64.26
71299;BME280;59083;47.974;21.722;2023-02-27T06:51:40;100646.38;;;1.05;63.98
71299;BME280;59083;47.974;21.722;2023-02-27T06:54:42;100661.75;;;0.98;63.57
71299;BME280;59083;47.974;21.722;2023-02-27T06:57:43;100660.09;;;0.97;63.53
71299;BME280;59083;47.974;21.722;2023-02-27T07:00:44;100675.81;;;0.75;63.55
71299;BME280;59083;47.974;21.722;2023-02-27T07:03:45;100657.34;;;0.99;63.14
71299;BME280;59083;47.974;21.722;2023-02-27T07:06:46;100672.25;;;0.76;63.00
71299;BME280;59083;47.974;21.722;2023-02-27T07:09:48;100660.59;;;0.91;62.11
71299;BME280;59083;47.974;21.722;2023-02-27T07:12:49;100670.00;;;0.94;62.17
71299;BME280;59083;47.974;21.722;2023-02-27T07:15:50;100664.63;;;0.84;61.94
71299;BME280;59083;47.974;21.722;2023-02-27T07:18:52;100669.28;;;1.03;61.47
71299;BME280;59083;47.974;21.722;2023-02-27T07:21:53;100672.50;;;1.17;61.38
71299;BME280;59083;47.974;21.722;2023-02-27T07:24:54;100691.81;;;1.28;61.01
71299;BME280;59083;47.974;21.722;2023-02-27T07:27:55;100672.59;;;1.27;60.66
71299;BME280;59083;47.974;21.722;2023-02-27T07:30:57;100664.72;;;1.27;60.67
71299;BME280;59083;47.974;21.722;2023-02-27T07:33:58;100684.06;;;1.26;60.09
71299;BME280;59083;47.974;21.722;2023-02-27T07:36:59;100701.09;;;1.43;59.45
71299;BME280;59083;47.974;21.722;2023-02-27T07:40:01;100695.84;;;1.32;59.78
71299;BME280;59083;47.974;21.722;2023-02-27T07:43:02;100706.62;;;1.29;60.19
71299;BME280;59083;47.974;21.722;2023-02-27T07:46:03;100710.31;;;1.26;60.34
71299;BME280;59083;47.974;21.722;2023-02-27T07:49:05;100701.13;;;1.20;60.56
71299;BME280;59083;47.974;21.722;2023-02-27T07:52:06;100720.00;;;1.37;60.60
71299;BME280;59083;47.974;21.722;2023-02-27T07:55:10;100715.19;;;1.08;60.93
71299;BME280;59083;47.974;21.722;2023-02-27T07:58:11;100718.19;;;1.26;60.36
71299;BME280;59083;47.974;21.722;2023-02-27T08:01:12;100720.31;;;1.10;60.62
71299;BME280;59083;47.974;21.722;2023-02-27T08:04:14;100740.72;;;1.17;60.94
71299;BME280;59083;47.974;21.722;2023-02-27T08:07:15;100730.12;;;1.30;60.40
71299;BME280;59083;47.974;21.722;2023-02-27T08:10:16;100733.31;;;1.45;60.16
71299;BME280;59083;47.974;21.722;2023-02-27T08:13:18;100742.41;;;1.41;60.37
71299;BME280;59083;47.974;21.722;2023-02-27T08:16:19;100753.03;;;1.39;60.15
71299;BME280;59083;47.974;21.722;2023-02-27T08:19:20;100745.97;;;1.62;59.50
71299;BME280;59083;47.974;21.722;2023-02-27T08:22:22;100757.91;;;1.66;59.56
71299;BME280;59083;47.974;21.722;2023-02-27T08:25:23;100750.62;;;1.58;59.65
71299;BME280;59083;47.974;21.722;2023-02-27T08:28:24;100758.81;;;1.98;58.68
71299;BME280;59083;47.974;21.722;2023-02-27T08:31:25;100772.59;;;1.69;59.60
71299;BME280;59083;47.974;21.722;2023-02-27T08:34:27;100742.84;;;1.79;59.15
71299;BME280;59083;47.974;21.722;2023-02-27T08:37:28;100774.62;;;1.76;58.71
71299;BME280;59083;47.974;21.722;2023-02-27T08:40:30;100788.34;;;1.69;59.61
71299;BME280;59083;47.974;21.722;2023-02-27T08:43:31;100769.37;;;1.76;59.37
71299;BME280;59083;47.974;21.722;2023-02-27T08:46:32;100796.59;;;1.64;59.59
71299;BME280;59083;47.974;21.722;2023-02-27T08:49:33;100791.69;;;1.82;59.40
71299;BME280;59083;47.974;21.722;2023-02-27T08:52:34;100787.00;;;1.96;58.94
71299;BME280;59083;47.974;21.722;2023-02-27T08:55:36;100785.72;;;1.57;59.51
71299;BME280;59083;47.974;21.722;2023-02-27T08:58:37;100793.97;;;1.75;59.15
71299;BME280;59083;47.974;21.722;2023-02-27T09:01:38;100802.28;;;1.91;58.81
71299;BME280;59083;47.974;21.722;2023-02-27T09:04:40;100805.88;;;1.79;58.69
71299;BME280;59083;47.974;21.722;2023-02-27T09:07:41;100798.38;;;1.75;58.76
71299;BME280;59083;47.974;21.722;2023-02-27T09:10:42;100796.75;;;2.05;58.11
71299;BME280;59083;47.974;21.722;2023-02-27T09:13:43;100820.19;;;2.08;58.02
71299;BME280;59083;47.974;21.722;2023-02-27T09:16:45;100816.37;;;2.01;58.26
71299;BME280;59083;47.974;21.722;2023-02-27T09:19:46;100827.13;;;1.98;58.18
71299;BME280;59083;47.974;21.722;2023-02-27T09:22:49;100836.19;;;2.05;57.83
71299;BME280;59083;47.974;21.722;2023-02-27T09:25:50;100833.53;;;2.28;57.18
71299;BME280;59083;47.974;21.722;2023-02-27T09:28:51;100820.28;;;2.61;56.74
71299;BME280;59083;47.974;21.722;2023-02-27T09:31:52;100832.97;;;2.56;57.01
71299;BME280;59083;47.974;21.722;2023-02-27T09:34:54;100849.41;;;2.69;56.43
71299;BME280;59083;47.974;21.722;2023-02-27T09:37:56;100838.56;;;2.95;56.11
71299;BME280;59083;47.974;21.722;2023-02-27T09:40:58;100840.56;;;2.70;56.75
71299;BME280;59083;47.974;21.722;2023-02-27T09:43:59;100847.63;;;2.70;55.90
71299;BME280;59083;47.974;21.722;2023-02-27T09:47:09;100860.44;;;2.63;57.49
71299;BME280;59083;47.974;21.722;2023-02-27T09:50:42;100863.87;;;3.07;55.15
71299;BME280;59083;47.974;21.722;2023-02-27T09:53:47;100868.47;;;2.94;56.62
71299;BME280;59083;47.974;21.722;2023-02-27T09:56:56;100860.91;;;3.21;56.12
71299;BME280;59083;47.974;21.722;2023-02-27T10:00:03;100877.84;;;2.75;56.40
71299;BME280;59083;47.974;21.722;2023-02-27T10:03:17;100851.94;;;2.28;56.92
71299;BME280;59083;47.974;21.722;2023-02-27T10:06:27;100880.91;;;2.91;56.53
71299;BME280;59083;47.974;21.722;2023-02-27T10:16:07;100878.66;;;3.08;55.86
71299;BME280;59083;47.974;21.722;2023-02-27T10:19:16;100891.97;;;3.06;55.65
71299;BME280;59083;47.974;21.722;2023-02-27T10:22:29;100891.19;;;2.95;56.29
71299;BME280;59083;47.974;21.722;2023-02-27T10:25:33;100887.50;;;3.18;55.40
71299;BME280;59083;47.974;21.722;2023-02-27T10:28:39;100889.53;;;2.94;55.52
71299;BME280;59083;47.974;21.722;2023-02-27T10:31:41;100918.50;;;3.14;55.33
71299;BME280;59083;47.974;21.722;2023-02-27T10:34:48;100910.94;;;3.21;55.79
71299;BME280;59083;47.974;21.722;2023-02-27T10:37:55;100910.25;;;3.08;55.52
71299;BME280;59083;47.974;21.722;2023-02-27T10:40:59;100915.50;;;3.40;55.71
71299;BME280;59083;47.974;21.722;2023-02-27T10:44:01;100915.50;;;3.19;55.94
71299;BME280;59083;47.974;21.722;2023-02-27T10:47:02;100925.00;;;3.31;55.38
71299;BME280;59083;47.974;21.722;2023-02-27T10:50:41;100935.22;;;3.45;55.16
71299;BME280;59083;47.974;21.722;2023-02-27T10:53:39;100937.12;;;2.90;56.07
71299;BME280;59083;47.974;21.722;2023-02-27T10:56:44;100944.16;;;3.33;55.93
71299;BME280;59083;47.974;21.722;2023-02-27T10:59:57;100942.94;;;3.37;55.38
71299;BME280;59083;47.974;21.722;2023-02-27T11:02:59;100944.03;;;3.35;55.08
71299;BME280;59083;47.974;21.722;2023-02-27T11:09:27;100936.81;;;3.16;54.87
71299;BME280;59083;47.974;21.722;2023-02-27T11:12:32;100936.56;;;3.19;55.30
71299;BME280;59083;47.974;21.722;2023-02-27T11:15:36;100935.50;;;3.10;55.83
71299;BME280;59083;47.974;21.722;2023-02-27T11:18:40;100951.34;;;3.72;54.30
71299;BME280;59083;47.974;21.722;2023-02-27T11:21:59;100944.03;;;3.55;54.87
71299;BME280;59083;47.974;21.722;2023-02-27T11:25:22;100950.91;;;3.67;53.98
71299;BME280;59083;47.974;21.722;2023-02-27T11:28:29;100949.41;;;3.95;53.51
71299;BME280;59083;47.974;21.722;2023-02-27T11:31:31;100953.22;;;4.12;52.78
71299;BME280;59083;47.974;21.722;2023-02-27T11:34:35;100959.37;;;4.22;53.28
71299;BME280;59083;47.974;21.722;2023-02-27T11:37:38;100964.38;;;4.15;52.86
71299;BME280;59083;47.974;21.722;2023-02-27T11:40:49;100975.38;;;4.00;53.19
71299;BME280;59083;47.974;21.722;2023-02-27T11:43:52;100965.63;;;3.91;53.84
71299;BME280;59083;47.974;21.722;2023-02-27T11:47:07;100968.06;;;3.83;53.78
71299;BME280;59083;47.974;21.722;2023-02-27T11:56:23;100959.59;;;3.58;54.18
71299;BME280;59083;47.974;21.722;2023-02-27T12:05:50;100978.16;;;3.78;54.00
71299;BME280;59083;47.974;21.722;2023-02-27T12:09:08;100986.56;;;3.71;54.61
71299;BME280;59083;47.974;21.722;2023-02-27T12:12:30;100966.91;;;3.96;53.88
71299;BME280;59083;47.974;21.722;2023-02-27T12:15:38;100990.94;;;3.61;54.85
71299;BME280;59083;47.974;21.722;2023-02-27T12:18:49;100996.44;;;3.69;55.04
71299;BME280;59083;47.974;21.722;2023-02-27T12:22:19;100985.09;;;3.99;53.96
71299;BME280;59083;47.974;21.722;2023-02-27T12:25:29;100978.22;;;3.66;54.37
71299;BME280;59083;47.974;21.722;2023-02-27T12:28:44;100983.25;;;3.69;54.68
71299;BME280;59083;47.974;21.722;2023-02-27T12:32:05;100988.25;;;3.72;54.49
71299;BME280;59083;47.974;21.722;2023-02-27T12:35:26;100990.75;;;3.95;54.14
71299;BME280;59083;47.974;21.722;2023-02-27T12:38:30;100992.22;;;3.88;53.85
71299;BME280;59083;47.974;21.722;2023-02-27T12:41:42;100989.41;;;3.80;54.17
71299;BME280;59083;47.974;21.722;2023-02-27T12:45:10;100993.31;;;4.06;54.20
71299;BME280;59083;47.974;21.722;2023-02-27T12:51:59;101010.75;;;3.77;54.61
71299;BME280;59083;47.974;21.722;2023-02-27T12:55:26;101002.34;;;3.62;54.76
71299;BME280;59083;47.974;21.722;2023-02-27T12:58:58;101007.16;;;3.78;55.18
71299;BME280;59083;47.974;21.722;2023-02-27T13:08:48;101027.13;;;3.59;55.45
71299;BME280;59083;47.974;21.722;2023-02-27T13:12:08;101018.12;;;3.62;55.41
71299;BME280;59083;47.974;21.722;2023-02-27T13:15:22;101010.22;;;3.41;55.83
71299;BME280;59083;47.974;21.722;2023-02-27T13:24:54;101023.34;;;3.52;55.82
71299;BME280;59083;47.974;21.722;2023-02-27T13:27:59;101023.28;;;3.63;55.48
71299;BME280;59083;47.974;21.722;2023-02-27T13:34:34;101025.72;;;3.55;56.04
71299;BME280;59083;47.974;21.722;2023-02-27T13:37:59;101027.13;;;3.27;56.68
71299;BME280;59083;47.974;21.722;2023-02-27T13:50:50;101055.41;;;3.14;57.81
71299;BME280;59083;47.974;21.722;2023-02-27T13:57:24;101053.16;;;3.10;58.26
71299;BME280;59083;47.974;21.722;2023-02-27T14:00:28;101048.78;;;2.88;58.89
71299;BME280;59083;47.974;21.722;2023-02-27T14:03:30;101054.25;;;2.85;59.06
71299;BME280;59083;47.974;21.722;2023-02-27T14:06:32;101054.84;;;3.11;58.63
71299;BME280;59083;47.974;21.722;2023-02-27T14:09:36;101056.50;;;3.23;58.62
71299;BME280;59083;47.974;21.722;2023-02-27T14:12:43;101064.88;;;3.17;58.72
71299;BME280;59083;47.974;21.722;2023-02-27T14:15:50;101064.63;;;3.20;58.84
71299;BME280;59083;47.974;21.722;2023-02-27T14:18:55;101086.19;;;2.91;60.00
71299;BME280;59083;47.974;21.722;2023-02-27T14:22:30;101078.06;;;3.06;59.48
71299;BME280;59083;47.974;21.722;2023-02-27T14:25:35;101070.53;;;3.01;59.50
71299;BME280;59083;47.974;21.722;2023-02-27T14:28:49;101076.59;;;3.24;59.05
71299;BME280;59083;47.974;21.722;2023-02-27T14:31:57;101090.84;;;3.21;59.30
71299;BME280;59083;47.974;21.722;2023-02-27T14:35:02;101088.34;;;3.09;59.54
71299;BME280;59083;47.974;21.722;2023-02-27T14:38:08;101092.88;;;3.18;59.77
71299;BME280;59083;47.974;21.722;2023-02-27T14:44:41;101113.62;;;3.00;60.45
71299;BME280;59083;47.974;21.722;2023-02-27T14:47:43;101109.19;;;3.12;60.20
71299;BME280;59083;47.974;21.722;2023-02-27T14:50:50;101108.72;;;2.96;60.84
71299;BME280;59083;47.974;21.722;2023-02-27T14:57:05;101117.09;;;2.89;61.15
71299;BME280;59083;47.974;21.722;2023-02-27T15:00:35;101112.41;;;3.04;61.10
71299;BME280;59083;47.974;21.722;2023-02-27T15:03:38;101125.19;;;3.09;60.56
71299;BME280;59083;47.974;21.722;2023-02-27T15:06:43;101126.88;;;3.21;60.63
71299;BME280;59083;47.974;21.722;2023-02-27T15:09:45;101133.22;;;3.18;60.12
71299;BME280;59083;47.974;21.722;2023-02-27T15:12:49;101156.31;;;3.04;60.58
71299;BME280;59083;47.974;21.722;2023-02-27T15:19:33;101174.00;;;2.90;60.98
71299;BME280;59083;47.974;21.722;2023-02-27T15:22:36;101164.69;;;2.98;60.74
71299;BME280;59083;47.974;21.722;2023-02-27T15:25:38;101180.00;;;3.04;60.84
71299;BME280;59083;47.974;21.722;2023-02-27T15:28:39;101184.78;;;2.87;61.39
71299;BME280;59083;47.974;21.722;2023-02-27T15:31:44;101178.78;;;2.74;61.81
71299;BME280;59083;47.974;21.722;2023-02-27T15:34:45;101177.34;;;2.70;62.37
71299;BME280;59083;47.974;21.722;2023-02-27T15:37:55;101189.75;;;2.57;62.67
71299;BME280;59083;47.974;21.722;2023-02-27T15:40:58;101181.66;;;2.60;62.25
71299;BME280;59083;47.974;21.722;2023-02-27T15:44:01;101205.69;;;2.56;62.23
71299;BME280;59083;47.974;21.722;2023-02-27T15:47:03;101204.47;;;2.48;62.39
71299;BME280;59083;47.974;21.722;2023-02-27T15:56:10;101200.91;;;2.26;62.55
71299;BME280;59083;47.974;21.722;2023-02-27T15:59:15;101208.47;;;2.30;62.88
71299;BME280;59083;47.974;21.722;2023-02-27T16:02:29;101222.94;;;2.36;62.90
71299;BME280;59083;47.974;21.722;2023-02-27T16:05:36;101229.78;;;2.38;62.35
71299;BME280;59083;47.974;21.722;2023-02-27T16:08:42;101226.31;;;2.38;62.33
71299;BME280;59083;47.974;21.722;2023-02-27T16:11:45;101232.19;;;2.18;62.41
71299;BME280;59083;47.974;21.722;2023-02-27T16:14:46;101233.87;;;2.19;62.56
71299;BME280;59083;47.974;21.722;2023-02-27T16:21:11;101251.78;;;2.14;63.19
71299;BME280;59083;47.974;21.722;2023-02-27T16:24:39;101257.25;;;2.11;62.80
71299;BME280;59083;47.974;21.722;2023-02-27T16:27:48;101258.03;;;2.24;62.53
71299;BME280;59083;47.974;21.722;2023-02-27T16:30:52;101258.22;;;2.10;62.91
71299;BME280;59083;47.974;21.722;2023-02-27T16:33:55;101262.03;;;2.17;62.62
71299;BME280;59083;47.974;21.722;2023-02-27T16:37:00;101265.41;;;2.19;62.58
71299;BME280;59083;47.974;21.722;2023-02-27T16:43:30;101277.00;;;1.92;63.60
71299;BME280;59083;47.974;21.722;2023-02-27T16:46:31;101274.97;;;1.96;63.23
71299;BME280;59083;47.974;21.722;2023-02-27T16:49:32;101278.03;;;1.90;63.72
71299;BME280;59083;47.974;21.722;2023-02-27T16:52:33;101278.53;;;1.95;63.40
71299;BME280;59083;47.974;21.722;2023-02-27T16:55:38;101273.53;;;1.79;63.72
71299;BME280;59083;47.974;21.722;2023-02-27T16:58:40;101284.06;;;1.79;63.63
71299;BME280;59083;47.974;21.722;2023-02-27T17:01:41;101287.34;;;1.70;63.90
71299;BME280;59083;47.974;21.722;2023-02-27T17:04:42;101284.50;;;1.60;63.80
71299;BME280;59083;47.974;21.722;2023-02-27T17:07:46;101291.25;;;1.52;64.12
71299;BME280;59083;47.974;21.722;2023-02-27T17:10:48;101290.94;;;1.44;63.89
71299;BME280;59083;47.974;21.722;2023-02-27T17:13:50;101289.47;;;1.40;63.73
71299;BME280;59083;47.974;21.722;2023-02-27T17:16:51;101297.34;;;1.40;63.91
71299;BME280;59083;47.974;21.722;2023-02-27T17:19:52;101291.06;;;1.42;63.66
71299;BME280;59083;47.974;21.722;2023-02-27T17:22:54;101290.22;;;1.42;63.31
71299;BME280;59083;47.974;21.722;2023-02-27T17:25:56;101288.44;;;1.30;63.63
71299;BME280;59083;47.974;21.722;2023-02-27T17:28:57;101294.63;;;1.29;63.32
71299;BME280;59083;47.974;21.722;2023-02-27T17:31:58;101309.53;;;1.15;63.50
71299;BME280;59083;47.974;21.722;2023-02-27T17:34:59;101317.66;;;1.25;63.50
71299;BME280;59083;47.974;21.722;2023-02-27T17:38:01;101322.34;;;1.20;63.30
71299;BME280;59083;47.974;21.722;2023-02-27T17:41:06;101318.25;;;1.29;63.17
71299;BME280;59083;47.974;21.722;2023-02-27T17:44:11;101319.81;;;1.31;63.09
71299;BME280;59083;47.974;21.722;2023-02-27T17:47:13;101320.91;;;1.41;62.85
71299;BME280;59083;47.974;21.722;2023-02-27T17:50:15;101329.19;;;1.22;63.19
71299;BME280;59083;47.974;21.722;2023-02-27T17:53:16;101336.22;;;1.47;62.76
71299;BME280;59083;47.974;21.722;2023-02-27T17:56:18;101333.38;;;1.38;62.56
71299;BME280;59083;47.974;21.722;2023-02-27T17:59:19;101338.22;;;1.44;62.68
71299;BME280;59083;47.974;21.722;2023-02-27T18:02:20;101344.63;;;1.40;62.94
71299;BME280;59083;47.974;21.722;2023-02-27T18:05:22;101340.22;;;1.40;62.95
71299;BME280;59083;47.974;21.722;2023-02-27T18:08:23;101346.50;;;1.38;62.66
71299;BME280;59083;47.974;21.722;2023-02-27T18:11:24;101347.78;;;1.45;62.83